Aqaba, Jordan

6:56 PM EEST on September 19, 2014 (GMT +0300)
Aqaba International | Change Station
CLOSE
Current Station
Airport
Location: Aqaba,
Elevation: 174 ft
Nearby Weather Stations

Elev 174 ft 29.61 °N, 35.02 °E | Updated 1 hour ago

Clear
Clear
93 °F
Feels Like 91 °F
N
18
Wind Variable Wind from North

Today
High -- | Low -- °F
--% Chance of Precip.
Yesterday
High -- | Low -- °F
Precip. -- in
6:26 AM 6:40 PM
Waning Crescent, 18% visible
Pressure 29.83 in
Visibility -9999.0 miles
Clouds
Heat Index 91 °F
Dew Point 54 °F
Humidity 26%
Rainfall 0.00 in
Snow Depth Not available.
UV Not available.
Pollen Not available.
Air Quality Not available.
Flu Activity Not available.
METAR OJAQ 191400Z 36016KT CAVOK 34/12 Q1010 NOSIG

More Conditions Fewer Conditions

Pressure 29.83 in
Visibility -9999.0 miles
Clouds
Heat Index 91 °F
Dew Point 54 °F
Humidity 26%
Rainfall 0.00 in
Snow Depth Not available.
UV Not available.
Pollen Not available.
Air Quality Not available.
Flu Activity Not available.
METAR OJAQ 191400Z 36016KT CAVOK 34/12 Q1010 NOSIG

More Conditions Fewer Conditions

10-Day Weather Forecast

Almanac

Astronomy

Sep. 19, 2014 Rise Set
Actual Time 6:26 AM EEST 6:40 PM EEST
Civil Twilight 6:02 AM EEST 7:04 PM EEST
Nautical Twilight 5:34 AM EEST 7:32 PM EEST
Astronomical Twilight 5:06 AM EEST 8:00 PM EEST
Moon 2:09 AM EEST 3:42 PM EEST
Length of Visible Light 13h 01m
Length of Day
12h 14m
Tomorrow will be 1m 46s shorter.
Waning Crescent, 18% of the Moon is Illuminated
Today
Waning Crescent
Sep 24
New
Oct 1
First Quarter
Oct 8
Full
Oct 15
Last Quarter

Today's Extremes

Country Highs Country Lows

Community

WunderPhotos

Upload Photos

1,754,637 photos uploaded!

WunderBlogs® & News

By Dr. Jeff Masters
Director of Meteorology, Weather Underground
By Kari Strenfel
Meteorologist, Weather Underground
By Christopher C. Burt
Weather Historian, Weather Underground
September 19, 2014
September 19, 2014
September 19, 2014

Nearby

Snow Depth

Not available.

Earthquake Activity

City Distance Mag. Time & Date
No recent earthquake activity has been reported nearby.
Minimum magnitude displayed is 2.5.

Coastal Water Temperatures

Place Temperature
No Stations Reporting

Nearby Weather Stations